Astor — C6JR3 — position and weather

sailwx.info

Track history (hours):
 
Tides and Currents Weather Stations Pressure Air Temp Water Temp Dewpoint Dewpoint Depression Visibility Wind Speed Wind Dir Waves Ship Positions

Astor

Operator: Passat Ship Management Ltd

Last reported at 2017-Aug-20 18:13 UTC. Time now 2017-Aug-20 20:43 UTC.
Position N 59°14' W 003°04'.

Length 176 m; draft 6.2 m.

Type: Ship. MMSI: 308214000.

Date/timePositionNaut miles runAvg speedWind from/ knotsBaromVisibWave heightAir tempDewpointWater temp
2017-Aug-20 18:13N 59°14' W 003°04'311.8
2017-Aug-20 18:00N 59°13' W 002°60'510.4
2017-Aug-20 17:30N 59°10' W 002°52'510.7
2017-Aug-20 17:00N 59°06' W 002°45'611.1
2017-Aug-20 16:30N 59°01' W 002°49'5 9.5
2017-Aug-20 16:00N 59°01' W 002°58'1 1.3
2017-Aug-20 15:28N 59°00' W 002°58'0 0.0
2017-Aug-20 14:58N 59°00' W 002°58'0 0.0
2017-Aug-20 14:28N 59°00' W 002°58'0 0.0
2017-Aug-20 13:57N 59°00' W 002°58'0 0.0
2017-Aug-20 13:27N 59°00' W 002°58'0 0.0
2017-Aug-20 13:00N 59°00' W 002°58'0 0.0
2017-Aug-20 12:27N 59°00' W 002°58'0 0.0
2017-Aug-20 11:56N 59°00' W 002°58'0 0.0
2017-Aug-20 11:29N 59°00' W 002°58'0 0.0
2017-Aug-20 10:56N 59°00' W 002°58'0 0.0
2017-Aug-20 10:29N 59°00' W 002°58'0 0.0
2017-Aug-20 09:56N 59°00' W 002°58'0 0.0
2017-Aug-20 09:25N 59°00' W 002°58'0 0.0
2017-Aug-20 08:55N 59°00' W 002°58'0 0.0
2017-Aug-20 08:28N 59°00' W 002°58'0 0.0
2017-Aug-20 07:55N 59°00' W 002°58'0 0.0
2017-Aug-20 07:28N 59°00' W 002°58'0 0.0
2017-Aug-20 07:00N 59°00' W 002°58'0 0.0
2017-Aug-20 06:30N 59°00' W 002°58'0 0.0
2017-Aug-20 06:00N 59°00' W 002°58'1 1.3
2017-Aug-20 05:30N 59°00' W 002°58'4 8.1
2017-Aug-20 05:00N 59°01' W 002°50'510.0
2017-Aug-20 04:30N 58°60' W 002°40'611.8
2017-Aug-20 04:00N 58°55' W 002°33'45113.4
2017-Aug-18 18:19N 53°58' E 007°41'413.2
2017-Aug-18 18:00N 53°55' E 007°44'5 9.7
2017-Aug-18 17:30N 53°52' E 007°52'4 9.0
2017-Aug-18 17:00N 53°51' E 007°59'510.7
2017-Aug-18 16:30N 53°49' E 008°07'610.9
2017-Aug-18 16:00N 53°45' E 008°13'612.0
2017-Aug-18 15:30N 53°41' E 008°21'612.8
2017-Aug-18 15:00N 53°37' E 008°29'4 3.9
2017-Aug-18 13:58N 53°34' E 008°33'0 0.0
2017-Aug-18 13:30N 53°34' E 008°33'0 0.0
2017-Aug-18 13:00N 53°34' E 008°33'0 0.0
2017-Aug-18 12:30N 53°34' E 008°33'0 0.0
2017-Aug-18 11:57N 53°34' E 008°33'0 0.0
2017-Aug-18 11:29N 53°34' E 008°33'0 0.0
2017-Aug-18 10:59N 53°34' E 008°33'0 0.0
2017-Aug-18 10:29N 53°34' E 008°33'0 0.0
2017-Aug-18 09:59N 53°34' E 008°33'0 0.0
2017-Aug-18 09:29N 53°34' E 008°33'0 0.0
2017-Aug-18 08:58N 53°34' E 008°33'0 0.0
2017-Aug-18 08:28N 53°34' E 008°33'0 0.0
2017-Aug-18 07:58N 53°34' E 008°33'0 0.0
2017-Aug-18 07:28N 53°34' E 008°33'0 0.0
2017-Aug-18 06:58N 53°34' E 008°33'0 0.0
2017-Aug-18 06:30N 53°34' E 008°33'0 0.0
2017-Aug-18 06:00N 53°34' E 008°33'0 0.0
2017-Aug-18 05:30N 53°34' E 008°33'0 0.0
2017-Aug-18 05:00N 53°34' E 008°33'0 0.0
2017-Aug-18 04:29N 53°34' E 008°33'0 0.0
2017-Aug-18 03:59N 53°34' E 008°33'0 0.1
2017-Aug-18 03:30N 53°34' E 008°33'3 5.2
2017-Aug-18 03:00N 53°36' E 008°31'611.5
2017-Aug-18 02:30N 53°40' E 008°23'612.0
2017-Aug-18 02:00N 53°44' E 008°16'612.2
2017-Aug-18 01:30N 53°48' E 008°08'611.9
2017-Aug-18 01:00N 53°51' E 007°60'611.6
2017-Aug-18 00:30N 53°52' E 007°50'4 6.6
2017-Aug-17 23:58N 53°53' E 007°44'3 7.3
2017-Aug-17 23:30N 53°56' E 007°40'18 5.7
2017-Aug-17 20:16N 54°00' E 008°10'310.8
2017-Aug-17 19:59N 54°00' E 008°16'612.2
2017-Aug-17 19:30N 53°59' E 008°26'611.1
2017-Aug-17 19:00N 53°58' E 008°35'5 9.7
2017-Aug-17 18:30N 53°55' E 008°41'5 9.7
2017-Aug-17 18:00N 53°51' E 008°46'4 8.9
2017-Aug-17 17:30N 53°51' E 008°54'4 8.9
2017-Aug-17 17:00N 53°51' E 009°01'5 9.4
2017-Aug-17 16:30N 53°53' E 009°08'0 0.5
2017-Aug-17 15:58N 53°54' E 009°09'0 0.8
2017-Aug-17 15:31N 53°54' E 009°09'1 1.6
2017-Aug-17 15:00N 53°54' E 009°10'3 5.3
2017-Aug-17 14:30N 53°56' E 009°13'4 8.5
2017-Aug-17 14:00N 53°60' E 009°17'4 8.7
2017-Aug-17 13:30N 54°04' E 009°19'4 8.4
2017-Aug-17 13:00N 54°08' E 009°20'39 6.0
2017-Aug-17 06:33N 54°29' E 010°16'110.9
2017-Aug-17 06:27N 54°30' E 010°18'510.3
2017-Aug-17 06:00N 54°32' E 010°25'510.9
2017-Aug-17 05:30N 54°34' E 010°33'510.9
2017-Aug-17 05:00N 54°35' E 010°43'511.0
2017-Aug-17 04:30N 54°36' E 010°52'510.9
2017-Aug-17 04:00N 54°36' E 011°01'611.9
2017-Aug-17 03:30N 54°36' E 011°12'612.0
2017-Aug-17 03:00N 54°33' E 011°21'611.8
2017-Aug-17 02:30N 54°31' E 011°30'611.6
2017-Aug-17 02:00N 54°28' E 011°39'611.5
2017-Aug-17 01:30N 54°26' E 011°48'611.4
2017-Aug-17 01:00N 54°26' E 011°58'611.1
2017-Aug-17 00:30N 54°27' E 012°07'510.8
2017-Aug-17 00:00N 54°31' E 012°12'611.2
2017-Aug-16 23:30N 54°37' E 012°15'611.6
2017-Aug-16 23:00N 54°40' E 012°23'611.9
2017-Aug-16 22:29N 54°44' E 012°32'611.9
2017-Aug-16 22:00N 54°47' E 012°40'1411.7
2017-Aug-16 20:49N 54°52' E 013°03'511.6
2017-Aug-16 20:23N 54°53' E 013°11'511.8
2017-Aug-16 19:59N 54°55' E 013°19'611.8
2017-Aug-16 19:30N 54°57' E 013°28'611.7
2017-Aug-16 19:00N 54°59' E 013°38'611.6
2017-Aug-16 18:30N 55°01' E 013°47'611.7
2017-Aug-16 18:00N 55°03' E 013°56'611.3
2017-Aug-16 17:30N 55°05' E 014°05'510.6
2017-Aug-16 17:00N 55°07' E 014°14'611.3
2017-Aug-16 16:30N 55°07' E 014°24'611.6
2017-Aug-16 16:00N 55°06' E 014°34'3 7.0
2017-Aug-16 15:30N 55°06' E 014°40'0 0.6
2017-Aug-16 14:59N 55°06' E 014°40'0 0.0
2017-Aug-16 14:29N 55°06' E 014°40'0 0.0
2017-Aug-16 13:59N 55°06' E 014°40'0 0.0
2017-Aug-16 13:28N 55°06' E 014°40'0 0.0
2017-Aug-16 12:58N 55°06' E 014°40'0 0.0
2017-Aug-16 12:28N 55°06' E 014°40'0 0.0
2017-Aug-16 11:58N 55°06' E 014°40'0 0.0
2017-Aug-16 11:30N 55°06' E 014°40'0 0.0
2017-Aug-16 11:00N 55°06' E 014°40'0 0.0
2017-Aug-16 10:30N 55°06' E 014°40'0 0.0
2017-Aug-16 10:00N 55°06' E 014°40'0 0.0
2017-Aug-16 09:27N 55°06' E 014°40'0 0.0
2017-Aug-16 08:59N 55°06' E 014°40'0 0.0
2017-Aug-16 08:29N 55°06' E 014°40'0 0.0
2017-Aug-16 07:59N 55°06' E 014°40'0 0.0
2017-Aug-16 07:29N 55°06' E 014°40'0 0.0
2017-Aug-16 06:59N 55°06' E 014°40'0 0.0
2017-Aug-16 06:28N 55°06' E 014°40'0 0.0
2017-Aug-16 05:58N 55°06' E 014°40'0 0.0
2017-Aug-16 05:28N 55°06' E 014°40'0 0.0
2017-Aug-16 04:58N 55°06' E 014°40'1 1.2
2017-Aug-16 04:31N 55°06' E 014°40'0 0.4
2017-Aug-16 04:00N 55°06' E 014°40'1 2.1
2017-Aug-16 03:30N 55°07' E 014°38'2 3.5
2017-Aug-16 03:00N 55°07' E 014°35'2 4.1
2017-Aug-16 02:30N 55°07' E 014°32'3 5.6
2017-Aug-16 02:00N 55°07' E 014°27'4 7.7
2017-Aug-16 01:30N 55°07' E 014°20'4 7.2
2017-Aug-16 01:00N 55°05' E 014°15'4 8.0
2017-Aug-16 00:30N 55°02' E 014°10'4 8.3
2017-Aug-16 00:00N 55°00' E 014°04'4 8.9
2017-Aug-15 23:30N 54°59' E 013°56'5 9.1
2017-Aug-15 23:00N 54°57' E 013°49'5 9.0
2017-Aug-15 22:30N 54°56' E 013°41'3 6.3
2017-Aug-15 22:01N 54°53' E 013°38'5 9.3
2017-Aug-15 21:30N 54°49' E 013°43'4 8.1
2017-Aug-15 21:00N 54°46' E 013°45'4 8.0
2017-Aug-15 20:31N 54°42' E 013°47'4 8.1
2017-Aug-15 20:00N 54°38' E 013°48'4 8.2
2017-Aug-15 19:30N 54°34' E 013°50'4 8.4
2017-Aug-15 19:01N 54°30' E 013°52'4 8.2
2017-Aug-15 18:30N 54°26' E 013°55'4 8.3
2017-Aug-15 18:00N 54°22' E 013°58'611.5
2017-Aug-15 17:30N 54°17' E 014°03'6 0.3
2017-Aug-14 23:28N 54°22' E 013°56'3 6.9
2017-Aug-14 23:00N 54°25' E 013°53'3 6.4
2017-Aug-14 22:28N 54°27' E 013°48'4 7.0
2017-Aug-14 21:49N 54°28' E 013°41'2 7.2
2017-Aug-14 21:30N 54°28' E 013°37'27 1.4
2017-Aug-14 01:47N 54°46' E 013°01'412.7
2017-Aug-14 01:30N 54°46' E 012°55'612.3
2017-Aug-14 01:00N 54°45' E 012°44'1812.2
2017-Aug-13 23:33N 54°35' E 012°19'112.3
2017-Aug-13 23:29N 54°35' E 012°18'612.3
2017-Aug-13 23:00N 54°29' E 012°15'611.4
2017-Aug-13 22:30N 54°25' E 012°08'2612.0
2017-Aug-13 20:22N 54°31' E 011°25'513.0
2017-Aug-13 19:59N 54°33' E 011°18'613.1
2017-Aug-13 19:30N 54°35' E 011°08'713.6
2017-Aug-13 19:00N 54°35' E 010°56'713.8
2017-Aug-13 18:30N 54°34' E 010°44'713.4
2017-Aug-13 18:00N 54°33' E 010°33'712.6
2017-Aug-13 17:29N 54°30' E 010°22'1 0.1
2017-Aug-13 04:04N 54°31' E 010°20'211.3
2017-Aug-13 03:55N 54°31' E 010°22'512.0
2017-Aug-13 03:31N 54°33' E 010°30'612.8
2017-Aug-13 03:01N 54°35' E 010°41'612.7
2017-Aug-13 02:31N 54°36' E 010°52'612.7
2017-Aug-13 02:01N 54°36' E 011°02'612.1
2017-Aug-13 01:31N 54°36' E 011°13'612.4
2017-Aug-13 01:00N 54°34' E 011°23'612.4
2017-Aug-13 00:30N 54°30' E 011°32'612.3
2017-Aug-13 00:00N 54°27' E 011°41'712.2
2017-Aug-12 23:24N 54°26' E 011°54'512.2
2017-Aug-12 23:01N 54°26' E 012°02'611.3
2017-Aug-12 22:30N 54°29' E 012°10'612.7
2017-Aug-12 22:01N 54°35' E 012°14'1512.6
2017-Aug-12 20:48N 54°47' E 012°30'512.8
2017-Aug-12 20:27N 54°51' E 012°33'612.9
2017-Aug-12 20:01N 54°56' E 012°37'913.2
2017-Aug-12 19:21N 55°05' E 012°38'513.2
2017-Aug-12 19:00N 55°10' E 012°38'612.9
2017-Aug-12 18:31N 55°16' E 012°38'612.3
2017-Aug-12 18:01N 55°22' E 012°38'612.3
2017-Aug-12 17:31N 55°28' E 012°40'611.5
2017-Aug-12 17:01N 55°34' E 012°42'611.2
2017-Aug-12 16:31N 55°39' E 012°41'4 9.0
2017-Aug-12 16:01N 55°44' E 012°39'2 4.5
2017-Aug-12 15:30N 55°42' E 012°36'0 0.0
2017-Aug-12 15:00N 55°42' E 012°36'0 0.0
2017-Aug-12 14:30N 55°42' E 012°36'0 0.0
2017-Aug-12 14:00N 55°42' E 012°36'0 0.0
2017-Aug-12 13:30N 55°42' E 012°36'0 0.0
2017-Aug-12 12:59N 55°42' E 012°36'0 0.0
2017-Aug-12 12:29N 55°42' E 012°36'0 0.0
2017-Aug-12 11:59N 55°42' E 012°36'0 0.0
2017-Aug-12 11:29N 55°42' E 012°36'0 0.0
2017-Aug-12 10:58N 55°42' E 012°36'0 0.0
2017-Aug-12 10:28N 55°42' E 012°36'0 0.0
2017-Aug-12 09:58N 55°42' E 012°36'0 0.0
2017-Aug-12 09:28N 55°42' E 012°36'0 0.0
2017-Aug-12 08:58N 55°42' E 012°36'0 0.0
2017-Aug-12 08:30N 55°42' E 012°36'0 0.0
2017-Aug-12 08:00N 55°42' E 012°36'0 0.0
2017-Aug-12 07:30N 55°42' E 012°36'0 0.0
2017-Aug-12 07:00N 55°42' E 012°36'0 0.0
2017-Aug-12 06:30N 55°42' E 012°36'0 0.0
2017-Aug-12 05:59N 55°42' E 012°36'0 0.0
2017-Aug-12 05:29N 55°42' E 012°36'0 0.6
2017-Aug-12 05:00N 55°42' E 012°36'3 6.2
2017-Aug-12 04:30N 55°45' E 012°40'4 8.0
2017-Aug-12 04:00N 55°48' E 012°42'4 8.5
2017-Aug-12 03:30N 55°53' E 012°44'5 9.0
2017-Aug-12 03:00N 55°57' E 012°42'510.4
2017-Aug-12 02:30N 56°02' E 012°39'5 9.7
2017-Aug-12 02:00N 56°06' E 012°34'611.3
2017-Aug-12 01:30N 56°09' E 012°26'611.3
2017-Aug-12 01:00N 56°12' E 012°17'1110.4
2017-Aug-11 23:56N 56°20' E 012°03'5411.9
2017-Aug-11 19:20N 57°12' E 011°34'412.5
2017-Aug-11 19:00N 57°16' E 011°31'612.1
2017-Aug-11 18:30N 57°22' E 011°33'612.1
2017-Aug-11 17:59N 57°28' E 011°35'612.1
2017-Aug-11 17:30N 57°34' E 011°38'611.2
2017-Aug-11 17:00N 57°39' E 011°42'510.8
2017-Aug-11 16:30N 57°41' E 011°51'3 6.9
2017-Aug-11 16:00N 57°42' E 011°57'0 0.9
2017-Aug-11 15:29N 57°43' E 011°58'0 0.0
2017-Aug-11 14:59N 57°43' E 011°58'0 0.0
2017-Aug-11 13:59N 57°43' E 011°58'0 0.0
2017-Aug-11 13:29N 57°43' E 011°58'0 0.0
2017-Aug-11 12:58N 57°43' E 011°58'0 0.0
2017-Aug-11 12:28N 57°43' E 011°58'0 0.0
2017-Aug-11 11:58N 57°43' E 011°58'0 0.0
2017-Aug-11 11:28N 57°43' E 011°58'0 0.0
2017-Aug-11 10:58N 57°43' E 011°58'0 0.0
2017-Aug-11 10:30N 57°43' E 011°58'0 0.0
2017-Aug-11 10:00N 57°43' E 011°58'0 0.0
2017-Aug-11 09:30N 57°43' E 011°58'0 0.0
2017-Aug-11 09:00N 57°43' E 011°58'0 0.0
2017-Aug-11 08:29N 57°43' E 011°58'0 0.0
2017-Aug-11 07:59N 57°43' E 011°58'0 0.0
2017-Aug-11 07:29N 57°43' E 011°58'0 0.0
2017-Aug-11 06:59N 57°43' E 011°58'0 0.0
2017-Aug-11 06:29N 57°43' E 011°58'0 0.0
2017-Aug-11 06:01N 57°43' E 011°58'1 2.2
2017-Aug-11 05:31N 57°42' E 011°56'4 7.9
2017-Aug-11 05:01N 57°41' E 011°49'611.3
2017-Aug-11 04:30N 57°37' E 011°41'510.8
2017-Aug-11 04:00N 57°38' E 011°31'510.6
2017-Aug-11 03:31N 57°42' E 011°25'612.2
2017-Aug-11 03:00N 57°48' E 011°19'713.4
2017-Aug-11 02:29N 57°54' E 011°13'713.5
2017-Aug-11 01:58N 58°00' E 011°07'713.9
2017-Aug-11 01:27N 58°07' E 011°02'613.3
2017-Aug-11 01:00N 58°13' E 010°59'612.9
2017-Aug-11 00:30N 58°19' E 010°57'712.3
2017-Aug-10 23:58N 58°25' E 010°53'611.9
2017-Aug-10 23:29N 58°31' E 010°50'612.0
2017-Aug-10 22:59N 58°37' E 010°48'612.4
2017-Aug-10 22:30N 58°42' E 010°45'713.0
2017-Aug-10 21:59N 58°49' E 010°42'613.1
2017-Aug-10 21:31N 58°55' E 010°39'713.0
2017-Aug-10 21:00N 59°01' E 010°36'511.0
2017-Aug-10 20:31N 59°07' E 010°33'611.3
2017-Aug-10 20:00N 59°12' E 010°37'713.3
2017-Aug-10 19:31N 59°18' E 010°35'713.3
2017-Aug-10 19:00N 59°25' E 010°33'612.9
2017-Aug-10 18:31N 59°31' E 010°35'  
Track history (hours):
 
Tides and Currents Weather Stations Pressure Air Temp Water Temp Dewpoint Dewpoint Depression Visibility Wind Speed Wind Dir Waves Ship Positions

Astor

Operator: Passat Ship Management Ltd

Last reported at 2017-Aug-20 18:13 UTC. Time now 2017-Aug-20 20:43 UTC.
Position N 59°14' W 003°04'.

Length 176 m; draft 6.2 m.

Type: Ship. MMSI: 308214000.

Date/timePositionNaut miles runAvg speedWind from/ knotsBaromVisibWave heightAir tempDewpointWater temp
2017-Aug-20 18:13N 59°14' W 003°04'311.8
2017-Aug-20 18:00N 59°13' W 002°60'510.4
2017-Aug-20 17:30N 59°10' W 002°52'510.7
2017-Aug-20 17:00N 59°06' W 002°45'611.1
2017-Aug-20 16:30N 59°01' W 002°49'5 9.5
2017-Aug-20 16:00N 59°01' W 002°58'1 1.3
2017-Aug-20 15:28N 59°00' W 002°58'0 0.0
2017-Aug-20 14:58N 59°00' W 002°58'0 0.0
2017-Aug-20 14:28N 59°00' W 002°58'0 0.0
2017-Aug-20 13:57N 59°00' W 002°58'0 0.0
2017-Aug-20 13:27N 59°00' W 002°58'0 0.0
2017-Aug-20 13:00N 59°00' W 002°58'0 0.0
2017-Aug-20 12:27N 59°00' W 002°58'0 0.0
2017-Aug-20 11:56N 59°00' W 002°58'0 0.0
2017-Aug-20 11:29N 59°00' W 002°58'0 0.0
2017-Aug-20 10:56N 59°00' W 002°58'0 0.0
2017-Aug-20 10:29N 59°00' W 002°58'0 0.0
2017-Aug-20 09:56N 59°00' W 002°58'0 0.0
2017-Aug-20 09:25N 59°00' W 002°58'0 0.0
2017-Aug-20 08:55N 59°00' W 002°58'0 0.0
2017-Aug-20 08:28N 59°00' W 002°58'0 0.0
2017-Aug-20 07:55N 59°00' W 002°58'0 0.0
2017-Aug-20 07:28N 59°00' W 002°58'0 0.0
2017-Aug-20 07:00N 59°00' W 002°58'0 0.0
2017-Aug-20 06:30N 59°00' W 002°58'0 0.0
2017-Aug-20 06:00N 59°00' W 002°58'1 1.3
2017-Aug-20 05:30N 59°00' W 002°58'4 8.1
2017-Aug-20 05:00N 59°01' W 002°50'510.0
2017-Aug-20 04:30N 58°60' W 002°40'611.8
2017-Aug-20 04:00N 58°55' W 002°33'45113.4
2017-Aug-18 18:19N 53°58' E 007°41'413.2
2017-Aug-18 18:00N 53°55' E 007°44'5 9.7
2017-Aug-18 17:30N 53°52' E 007°52'4 9.0
2017-Aug-18 17:00N 53°51' E 007°59'510.7
2017-Aug-18 16:30N 53°49' E 008°07'610.9
2017-Aug-18 16:00N 53°45' E 008°13'612.0
2017-Aug-18 15:30N 53°41' E 008°21'612.8
2017-Aug-18 15:00N 53°37' E 008°29'4 3.9
2017-Aug-18 13:58N 53°34' E 008°33'0 0.0
2017-Aug-18 13:30N 53°34' E 008°33'0 0.0
2017-Aug-18 13:00N 53°34' E 008°33'0 0.0
2017-Aug-18 12:30N 53°34' E 008°33'0 0.0
2017-Aug-18 11:57N 53°34' E 008°33'0 0.0
2017-Aug-18 11:29N 53°34' E 008°33'0 0.0
2017-Aug-18 10:59N 53°34' E 008°33'0 0.0
2017-Aug-18 10:29N 53°34' E 008°33'0 0.0
2017-Aug-18 09:59N 53°34' E 008°33'0 0.0
2017-Aug-18 09:29N 53°34' E 008°33'0 0.0
2017-Aug-18 08:58N 53°34' E 008°33'0 0.0
2017-Aug-18 08:28N 53°34' E 008°33'0 0.0
2017-Aug-18 07:58N 53°34' E 008°33'0 0.0
2017-Aug-18 07:28N 53°34' E 008°33'0 0.0
2017-Aug-18 06:58N 53°34' E 008°33'0 0.0
2017-Aug-18 06:30N 53°34' E 008°33'0 0.0
2017-Aug-18 06:00N 53°34' E 008°33'0 0.0
2017-Aug-18 05:30N 53°34' E 008°33'0 0.0
2017-Aug-18 05:00N 53°34' E 008°33'0 0.0
2017-Aug-18 04:29N 53°34' E 008°33'0 0.0
2017-Aug-18 03:59N 53°34' E 008°33'0 0.1
2017-Aug-18 03:30N 53°34' E 008°33'3 5.2
2017-Aug-18 03:00N 53°36' E 008°31'611.5
2017-Aug-18 02:30N 53°40' E 008°23'612.0
2017-Aug-18 02:00N 53°44' E 008°16'612.2
2017-Aug-18 01:30N 53°48' E 008°08'611.9
2017-Aug-18 01:00N 53°51' E 007°60'611.6
2017-Aug-18 00:30N 53°52' E 007°50'4 6.6
2017-Aug-17 23:58N 53°53' E 007°44'3 7.3
2017-Aug-17 23:30N 53°56' E 007°40'18 5.7
2017-Aug-17 20:16N 54°00' E 008°10'310.8
2017-Aug-17 19:59N 54°00' E 008°16'612.2
2017-Aug-17 19:30N 53°59' E 008°26'611.1
2017-Aug-17 19:00N 53°58' E 008°35'5 9.7
2017-Aug-17 18:30N 53°55' E 008°41'5 9.7
2017-Aug-17 18:00N 53°51' E 008°46'4 8.9
2017-Aug-17 17:30N 53°51' E 008°54'4 8.9
2017-Aug-17 17:00N 53°51' E 009°01'5 9.4
2017-Aug-17 16:30N 53°53' E 009°08'0 0.5
2017-Aug-17 15:58N 53°54' E 009°09'0 0.8
2017-Aug-17 15:31N 53°54' E 009°09'1 1.6
2017-Aug-17 15:00N 53°54' E 009°10'3 5.3
2017-Aug-17 14:30N 53°56' E 009°13'4 8.5
2017-Aug-17 14:00N 53°60' E 009°17'4 8.7
2017-Aug-17 13:30N 54°04' E 009°19'4 8.4
2017-Aug-17 13:00N 54°08' E 009°20'39 6.0
2017-Aug-17 06:33N 54°29' E 010°16'110.9
2017-Aug-17 06:27N 54°30' E 010°18'510.3
2017-Aug-17 06:00N 54°32' E 010°25'510.9
2017-Aug-17 05:30N 54°34' E 010°33'510.9
2017-Aug-17 05:00N 54°35' E 010°43'511.0
2017-Aug-17 04:30N 54°36' E 010°52'510.9
2017-Aug-17 04:00N 54°36' E 011°01'611.9
2017-Aug-17 03:30N 54°36' E 011°12'612.0
2017-Aug-17 03:00N 54°33' E 011°21'611.8
2017-Aug-17 02:30N 54°31' E 011°30'611.6
2017-Aug-17 02:00N 54°28' E 011°39'611.5
2017-Aug-17 01:30N 54°26' E 011°48'611.4
2017-Aug-17 01:00N 54°26' E 011°58'611.1
2017-Aug-17 00:30N 54°27' E 012°07'510.8
2017-Aug-17 00:00N 54°31' E 012°12'611.2
2017-Aug-16 23:30N 54°37' E 012°15'611.6
2017-Aug-16 23:00N 54°40' E 012°23'611.9
2017-Aug-16 22:29N 54°44' E 012°32'611.9
2017-Aug-16 22:00N 54°47' E 012°40'1411.7
2017-Aug-16 20:49N 54°52' E 013°03'511.6
2017-Aug-16 20:23N 54°53' E 013°11'511.8
2017-Aug-16 19:59N 54°55' E 013°19'611.8
2017-Aug-16 19:30N 54°57' E 013°28'611.7
2017-Aug-16 19:00N 54°59' E 013°38'611.6
2017-Aug-16 18:30N 55°01' E 013°47'611.7
2017-Aug-16 18:00N 55°03' E 013°56'611.3
2017-Aug-16 17:30N 55°05' E 014°05'510.6
2017-Aug-16 17:00N 55°07' E 014°14'611.3
2017-Aug-16 16:30N 55°07' E 014°24'611.6
2017-Aug-16 16:00N 55°06' E 014°34'3 7.0
2017-Aug-16 15:30N 55°06' E 014°40'0 0.6
2017-Aug-16 14:59N 55°06' E 014°40'0 0.0
2017-Aug-16 14:29N 55°06' E 014°40'0 0.0
2017-Aug-16 13:59N 55°06' E 014°40'0 0.0
2017-Aug-16 13:28N 55°06' E 014°40'0 0.0
2017-Aug-16 12:58N 55°06' E 014°40'0 0.0
2017-Aug-16 12:28N 55°06' E 014°40'0 0.0
2017-Aug-16 11:58N 55°06' E 014°40'0 0.0
2017-Aug-16 11:30N 55°06' E 014°40'0 0.0
2017-Aug-16 11:00N 55°06' E 014°40'0 0.0
2017-Aug-16 10:30N 55°06' E 014°40'0 0.0
2017-Aug-16 10:00N 55°06' E 014°40'0 0.0
2017-Aug-16 09:27N 55°06' E 014°40'0 0.0
2017-Aug-16 08:59N 55°06' E 014°40'0 0.0
2017-Aug-16 08:29N 55°06' E 014°40'0 0.0
2017-Aug-16 07:59N 55°06' E 014°40'0 0.0
2017-Aug-16 07:29N 55°06' E 014°40'0 0.0
2017-Aug-16 06:59N 55°06' E 014°40'0 0.0
2017-Aug-16 06:28N 55°06' E 014°40'0 0.0
2017-Aug-16 05:58N 55°06' E 014°40'0 0.0
2017-Aug-16 05:28N 55°06' E 014°40'0 0.0
2017-Aug-16 04:58N 55°06' E 014°40'1 1.2
2017-Aug-16 04:31N 55°06' E 014°40'0 0.4
2017-Aug-16 04:00N 55°06' E 014°40'1 2.1
2017-Aug-16 03:30N 55°07' E 014°38'2 3.5
2017-Aug-16 03:00N 55°07' E 014°35'2 4.1
2017-Aug-16 02:30N 55°07' E 014°32'3 5.6
2017-Aug-16 02:00N 55°07' E 014°27'4 7.7
2017-Aug-16 01:30N 55°07' E 014°20'4 7.2
2017-Aug-16 01:00N 55°05' E 014°15'4 8.0
2017-Aug-16 00:30N 55°02' E 014°10'4 8.3
2017-Aug-16 00:00N 55°00' E 014°04'4 8.9
2017-Aug-15 23:30N 54°59' E 013°56'5 9.1
2017-Aug-15 23:00N 54°57' E 013°49'5 9.0
2017-Aug-15 22:30N 54°56' E 013°41'3 6.3
2017-Aug-15 22:01N 54°53' E 013°38'5 9.3
2017-Aug-15 21:30N 54°49' E 013°43'4 8.1
2017-Aug-15 21:00N 54°46' E 013°45'4 8.0
2017-Aug-15 20:31N 54°42' E 013°47'4 8.1
2017-Aug-15 20:00N 54°38' E 013°48'4 8.2
2017-Aug-15 19:30N 54°34' E 013°50'4 8.4
2017-Aug-15 19:01N 54°30' E 013°52'4 8.2
2017-Aug-15 18:30N 54°26' E 013°55'4 8.3
2017-Aug-15 18:00N 54°22' E 013°58'611.5
2017-Aug-15 17:30N 54°17' E 014°03'6 0.3
2017-Aug-14 23:28N 54°22' E 013°56'3 6.9
2017-Aug-14 23:00N 54°25' E 013°53'3 6.4
2017-Aug-14 22:28N 54°27' E 013°48'4 7.0
2017-Aug-14 21:49N 54°28' E 013°41'2 7.2
2017-Aug-14 21:30N 54°28' E 013°37'27 1.4
2017-Aug-14 01:47N 54°46' E 013°01'412.7
2017-Aug-14 01:30N 54°46' E 012°55'612.3
2017-Aug-14 01:00N 54°45' E 012°44'1812.2
2017-Aug-13 23:33N 54°35' E 012°19'112.3
2017-Aug-13 23:29N 54°35' E 012°18'612.3
2017-Aug-13 23:00N 54°29' E 012°15'611.4
2017-Aug-13 22:30N 54°25' E 012°08'2612.0
2017-Aug-13 20:22N 54°31' E 011°25'513.0
2017-Aug-13 19:59N 54°33' E 011°18'613.1
2017-Aug-13 19:30N 54°35' E 011°08'713.6
2017-Aug-13 19:00N 54°35' E 010°56'713.8
2017-Aug-13 18:30N 54°34' E 010°44'713.4
2017-Aug-13 18:00N 54°33' E 010°33'712.6
2017-Aug-13 17:29N 54°30' E 010°22'1 0.1
2017-Aug-13 04:04N 54°31' E 010°20'211.3
2017-Aug-13 03:55N 54°31' E 010°22'512.0
2017-Aug-13 03:31N 54°33' E 010°30'612.8
2017-Aug-13 03:01N 54°35' E 010°41'612.7
2017-Aug-13 02:31N 54°36' E 010°52'612.7
2017-Aug-13 02:01N 54°36' E 011°02'612.1
2017-Aug-13 01:31N 54°36' E 011°13'612.4
2017-Aug-13 01:00N 54°34' E 011°23'612.4
2017-Aug-13 00:30N 54°30' E 011°32'612.3
2017-Aug-13 00:00N 54°27' E 011°41'712.2
2017-Aug-12 23:24N 54°26' E 011°54'512.2
2017-Aug-12 23:01N 54°26' E 012°02'611.3
2017-Aug-12 22:30N 54°29' E 012°10'612.7
2017-Aug-12 22:01N 54°35' E 012°14'1512.6
2017-Aug-12 20:48N 54°47' E 012°30'512.8
2017-Aug-12 20:27N 54°51' E 012°33'612.9
2017-Aug-12 20:01N 54°56' E 012°37'913.2
2017-Aug-12 19:21N 55°05' E 012°38'513.2
2017-Aug-12 19:00N 55°10' E 012°38'612.9
2017-Aug-12 18:31N 55°16' E 012°38'612.3
2017-Aug-12 18:01N 55°22' E 012°38'612.3
2017-Aug-12 17:31N 55°28' E 012°40'611.5
2017-Aug-12 17:01N 55°34' E 012°42'611.2
2017-Aug-12 16:31N 55°39' E 012°41'4 9.0
2017-Aug-12 16:01N 55°44' E 012°39'2 4.5
2017-Aug-12 15:30N 55°42' E 012°36'0 0.0
2017-Aug-12 15:00N 55°42' E 012°36'0 0.0
2017-Aug-12 14:30N 55°42' E 012°36'0 0.0
2017-Aug-12 14:00N 55°42' E 012°36'0 0.0
2017-Aug-12 13:30N 55°42' E 012°36'0 0.0
2017-Aug-12 12:59N 55°42' E 012°36'0 0.0
2017-Aug-12 12:29N 55°42' E 012°36'0 0.0
2017-Aug-12 11:59N 55°42' E 012°36'0 0.0
2017-Aug-12 11:29N 55°42' E 012°36'0 0.0
2017-Aug-12 10:58N 55°42' E 012°36'0 0.0
2017-Aug-12 10:28N 55°42' E 012°36'0 0.0
2017-Aug-12 09:58N 55°42' E 012°36'0 0.0
2017-Aug-12 09:28N 55°42' E 012°36'0 0.0
2017-Aug-12 08:58N 55°42' E 012°36'0 0.0
2017-Aug-12 08:30N 55°42' E 012°36'0 0.0
2017-Aug-12 08:00N 55°42' E 012°36'0 0.0
2017-Aug-12 07:30N 55°42' E 012°36'0 0.0
2017-Aug-12 07:00N 55°42' E 012°36'0 0.0
2017-Aug-12 06:30N 55°42' E 012°36'0 0.0
2017-Aug-12 05:59N 55°42' E 012°36'0 0.0
2017-Aug-12 05:29N 55°42' E 012°36'0 0.6
2017-Aug-12 05:00N 55°42' E 012°36'3 6.2
2017-Aug-12 04:30N 55°45' E 012°40'4 8.0
2017-Aug-12 04:00N 55°48' E 012°42'4 8.5
2017-Aug-12 03:30N 55°53' E 012°44'5 9.0
2017-Aug-12 03:00N 55°57' E 012°42'510.4
2017-Aug-12 02:30N 56°02' E 012°39'5 9.7
2017-Aug-12 02:00N 56°06' E 012°34'611.3
2017-Aug-12 01:30N 56°09' E 012°26'611.3
2017-Aug-12 01:00N 56°12' E 012°17'1110.4
2017-Aug-11 23:56N 56°20' E 012°03'5411.9
2017-Aug-11 19:20N 57°12' E 011°34'412.5
2017-Aug-11 19:00N 57°16' E 011°31'612.1
2017-Aug-11 18:30N 57°22' E 011°33'612.1
2017-Aug-11 17:59N 57°28' E 011°35'612.1
2017-Aug-11 17:30N 57°34' E 011°38'611.2
2017-Aug-11 17:00N 57°39' E 011°42'510.8
2017-Aug-11 16:30N 57°41' E 011°51'3 6.9
2017-Aug-11 16:00N 57°42' E 011°57'0 0.9
2017-Aug-11 15:29N 57°43' E 011°58'0 0.0
2017-Aug-11 14:59N 57°43' E 011°58'0 0.0
2017-Aug-11 13:59N 57°43' E 011°58'0 0.0
2017-Aug-11 13:29N 57°43' E 011°58'0 0.0
2017-Aug-11 12:58N 57°43' E 011°58'0 0.0
2017-Aug-11 12:28N 57°43' E 011°58'0 0.0
2017-Aug-11 11:58N 57°43' E 011°58'0 0.0
2017-Aug-11 11:28N 57°43' E 011°58'0 0.0
2017-Aug-11 10:58N 57°43' E 011°58'0 0.0
2017-Aug-11 10:30N 57°43' E 011°58'0 0.0
2017-Aug-11 10:00N 57°43' E 011°58'0 0.0
2017-Aug-11 09:30N 57°43' E 011°58'0 0.0
2017-Aug-11 09:00N 57°43' E 011°58'0 0.0
2017-Aug-11 08:29N 57°43' E 011°58'0 0.0
2017-Aug-11 07:59N 57°43' E 011°58'0 0.0
2017-Aug-11 07:29N 57°43' E 011°58'0 0.0
2017-Aug-11 06:59N 57°43' E 011°58'0 0.0
2017-Aug-11 06:29N 57°43' E 011°58'0 0.0
2017-Aug-11 06:01N 57°43' E 011°58'1 2.2
2017-Aug-11 05:31N 57°42' E 011°56'4 7.9
2017-Aug-11 05:01N 57°41' E 011°49'611.3
2017-Aug-11 04:30N 57°37' E 011°41'510.8
2017-Aug-11 04:00N 57°38' E 011°31'510.6
2017-Aug-11 03:31N 57°42' E 011°25'612.2
2017-Aug-11 03:00N 57°48' E 011°19'713.4
2017-Aug-11 02:29N 57°54' E 011°13'713.5
2017-Aug-11 01:58N 58°00' E 011°07'713.9
2017-Aug-11 01:27N 58°07' E 011°02'613.3
2017-Aug-11 01:00N 58°13' E 010°59'612.9
2017-Aug-11 00:30N 58°19' E 010°57'712.3
2017-Aug-10 23:58N 58°25' E 010°53'611.9
2017-Aug-10 23:29N 58°31' E 010°50'612.0
2017-Aug-10 22:59N 58°37' E 010°48'612.4
2017-Aug-10 22:30N 58°42' E 010°45'713.0
2017-Aug-10 21:59N 58°49' E 010°42'613.1
2017-Aug-10 21:31N 58°55' E 010°39'713.0
2017-Aug-10 21:00N 59°01' E 010°36'511.0
2017-Aug-10 20:31N 59°07' E 010°33'611.3
2017-Aug-10 20:00N 59°12' E 010°37'713.3
2017-Aug-10 19:31N 59°18' E 010°35'713.3
2017-Aug-10 19:00N 59°25' E 010°33'612.9
2017-Aug-10 18:31N 59°31' E 010°35'  

Dump ship's entire track history